createdAt,value
2023-04-12T00:01:32.754Z,8.06
2023-04-12T00:04:04.373Z,7.96
2023-04-12T00:06:33.461Z,7.97
2023-04-12T00:09:01.328Z,7.94
2023-04-12T00:11:29.686Z,8.14
2023-04-12T00:13:58.854Z,8.08
2023-04-12T00:16:26.774Z,8.02
2023-04-12T00:18:55.521Z,8.19
2023-04-12T00:21:23.891Z,8.08
2023-04-12T00:23:51.747Z,8.24
2023-04-12T00:26:21.805Z,8.24
2023-04-12T00:28:49.589Z,8.20
2023-04-12T00:31:18.753Z,8.00
2023-04-12T00:33:46.875Z,7.78
2023-04-12T00:36:14.710Z,7.91
2023-04-12T00:38:43.285Z,8.06
2023-04-12T00:41:11.110Z,7.92
2023-04-12T00:43:39.365Z,7.88
2023-04-12T00:46:07.932Z,7.94
2023-04-12T00:48:38.276Z,7.83
2023-04-12T00:51:08.326Z,7.79
2023-04-12T00:53:36.775Z,7.87
2023-04-12T00:56:05.547Z,7.76
2023-04-12T00:58:33.384Z,7.81
2023-04-12T01:01:01.280Z,7.75
2023-04-12T01:03:31.183Z,7.74
2023-04-12T01:06:13.891Z,7.91
2023-04-12T01:08:55.245Z,8.05
2023-04-12T01:11:32.300Z,8.00
2023-04-12T01:14:07.523Z,7.78
2023-04-12T01:16:44.319Z,8.06
2023-04-12T01:19:30.906Z,7.86
2023-04-12T01:22:13.657Z,7.84
2023-04-12T01:24:55.939Z,7.80
2023-04-12T01:27:35.497Z,7.92
2023-04-12T01:30:07.717Z,8.01
2023-04-12T01:32:37.901Z,7.89
2023-04-12T01:35:10.151Z,8.01
2023-04-12T01:37:38.224Z,7.50
2023-04-12T01:40:09.269Z,7.56
2023-04-12T01:42:38.383Z,7.71
2023-04-12T01:45:07.451Z,7.88
2023-04-12T01:47:36.053Z,8.07
2023-04-12T01:50:13.048Z,8.02
2023-04-12T01:52:49.407Z,7.94
2023-04-12T01:55:18.632Z,7.78
2023-04-12T01:57:49.399Z,7.68
2023-04-12T02:00:19.170Z,7.68
2023-04-12T02:02:47.300Z,7.82
2023-04-12T02:05:16.370Z,7.79
2023-04-12T02:07:44.987Z,7.96
2023-04-12T02:10:15.426Z,7.89
2023-04-12T02:12:43.192Z,7.81
2023-04-12T02:15:13.270Z,7.83
2023-04-12T02:17:41.081Z,8.01
2023-04-12T02:20:11.918Z,8.05
2023-04-12T02:22:39.817Z,8.16
2023-04-12T02:25:08.232Z,8.07
2023-04-12T02:27:36.030Z,7.82
2023-04-12T02:30:04.507Z,7.55
2023-04-12T02:32:45.252Z,7.48
2023-04-12T02:35:14.500Z,7.83
2023-04-12T02:37:43.872Z,7.86
2023-04-12T02:40:12.698Z,7.77
2023-04-12T02:42:40.606Z,7.88
2023-04-12T02:45:09.181Z,7.95
2023-04-12T02:47:38.578Z,8.15
2023-04-12T02:50:07.740Z,8.15
2023-04-12T02:52:35.589Z,8.02
2023-04-12T02:55:03.754Z,8.17
2023-04-12T02:57:31.633Z,7.91
2023-04-12T02:59:59.442Z,8.10
2023-04-12T03:02:27.776Z,7.99
2023-04-12T03:04:57.085Z,7.34
2023-04-12T03:07:25.036Z,7.84
2023-04-12T03:09:52.733Z,7.93
2023-04-12T03:12:20.553Z,8.05
2023-04-12T03:14:48.376Z,8.02
2023-04-12T03:17:16.104Z,7.95
2023-04-12T03:19:43.880Z,7.99
2023-04-12T03:22:13.043Z,8.14
2023-04-12T03:24:42.987Z,8.10
2023-04-12T03:27:10.801Z,7.89
2023-04-12T03:29:38.607Z,7.74
2023-04-12T03:32:06.566Z,7.81
2023-04-12T03:34:34.420Z,7.82
2023-04-12T03:37:02.866Z,7.84
2023-04-12T03:39:32.028Z,7.64
2023-04-12T03:41:59.773Z,7.78
2023-04-12T03:44:27.576Z,7.81
2023-04-12T03:46:55.376Z,7.76
2023-04-12T03:49:23.158Z,7.70
2023-04-12T03:51:52.437Z,7.81
2023-04-12T03:54:20.301Z,7.72
2023-04-12T03:56:49.414Z,7.72
2023-04-12T03:59:17.463Z,7.56
2023-04-12T04:01:45.190Z,7.63
2023-04-12T04:04:13.162Z,7.76
2023-04-12T04:06:41.145Z,7.82
2023-04-12T04:09:09.194Z,7.92
2023-04-12T04:11:37.789Z,8.02
2023-04-12T04:14:07.329Z,7.90
2023-04-12T04:16:35.082Z,8.02
2023-04-12T04:19:02.871Z,7.94
2023-04-12T04:21:32.185Z,7.77
2023-04-12T04:24:02.410Z,7.79
2023-04-12T04:26:33.571Z,7.67
2023-04-12T04:29:05.170Z,7.66
2023-04-12T04:31:36.401Z,7.73
2023-04-12T04:34:05.637Z,7.78
2023-04-12T04:36:35.132Z,7.79
2023-04-12T04:39:03.520Z,7.88
2023-04-12T04:41:34.680Z,7.89
2023-04-12T04:44:04.508Z,7.87
2023-04-12T04:46:32.309Z,7.72
2023-04-12T04:49:02.461Z,7.82
2023-04-12T04:51:30.637Z,7.83
2023-04-12T04:53:58.666Z,7.73
2023-04-12T04:56:26.588Z,7.72
2023-04-12T04:58:56.870Z,7.84
2023-04-12T05:01:26.064Z,7.91
2023-04-12T05:03:55.669Z,8.03
2023-04-12T05:06:25.780Z,7.85
2023-04-12T05:08:53.493Z,7.87
2023-04-12T05:11:21.347Z,7.89
2023-04-12T05:13:49.207Z,8.12
2023-04-12T05:16:17.030Z,7.97
2023-04-12T05:18:45.248Z,7.85
2023-04-12T05:21:13.076Z,7.86
2023-04-12T05:23:46.236Z,7.77
2023-04-12T05:26:14.254Z,7.94
2023-04-12T05:28:42.013Z,8.02
2023-04-12T05:31:09.861Z,8.05
2023-04-12T05:33:37.966Z,8.12
2023-04-12T05:36:06.637Z,8.04
2023-04-12T05:38:34.519Z,8.10
2023-04-12T05:41:04.729Z,8.15
2023-04-12T05:43:32.976Z,7.88
2023-04-12T05:46:00.932Z,8.11
2023-04-12T05:48:29.042Z,8.21
2023-04-12T05:50:56.876Z,8.25
2023-04-12T05:53:24.727Z,8.29
2023-04-12T05:55:54.278Z,8.21
2023-04-12T05:58:23.411Z,8.36
2023-04-12T06:00:51.430Z,8.48
2023-04-12T06:03:19.445Z,8.42
2023-04-12T06:05:47.827Z,8.53
2023-04-12T06:08:15.840Z,8.46
2023-04-12T06:10:44.108Z,8.59
2023-04-12T06:13:11.838Z,8.57
2023-04-12T06:15:41.105Z,8.60
2023-04-12T06:18:08.898Z,8.74
2023-04-12T06:20:40.116Z,8.69
2023-04-12T06:23:07.851Z,8.63
2023-04-12T06:25:35.578Z,8.61
2023-04-12T06:28:03.323Z,8.87
2023-04-12T06:30:31.257Z,8.94
2023-04-12T06:33:00.666Z,8.70
2023-04-12T06:35:28.452Z,8.76
2023-04-12T06:37:56.143Z,8.83
2023-04-12T06:40:23.941Z,8.87
2023-04-12T06:42:51.812Z,9.02
2023-04-12T06:45:20.224Z,9.13
2023-04-12T06:47:48.389Z,9.45
2023-04-12T06:50:18.523Z,9.26
2023-04-12T06:52:48.332Z,9.32
2023-04-12T06:55:16.290Z,9.51
2023-04-12T06:57:44.662Z,9.61
2023-04-12T07:00:13.626Z,9.81
2023-04-12T07:02:41.515Z,9.77
2023-04-12T07:05:09.944Z,10.03
2023-04-12T07:07:39.026Z,9.96
2023-04-12T07:10:08.380Z,9.93
2023-04-12T07:12:36.158Z,9.97
2023-04-12T07:15:04.435Z,10.27
2023-04-12T07:17:32.265Z,10.69
2023-04-12T07:20:00.194Z,10.86
2023-04-12T07:22:27.986Z,10.68
2023-04-12T07:24:57.252Z,11.11
2023-04-12T07:27:25.239Z,10.67
2023-04-12T07:29:53.344Z,10.87
2023-04-12T07:32:21.438Z,10.75
2023-04-12T07:34:49.529Z,10.94
2023-04-12T07:37:17.904Z,10.82
2023-04-12T07:39:45.944Z,11.14
2023-04-12T07:42:15.298Z,11.30
2023-04-12T07:44:43.126Z,11.66
2023-04-12T07:47:10.923Z,11.54
2023-04-12T07:49:38.665Z,12.26
2023-04-12T07:52:06.617Z,12.43
2023-04-12T07:54:34.365Z,12.38
2023-04-12T07:57:03.810Z,12.37
2023-04-12T07:59:33.269Z,12.32
2023-04-12T08:02:01.976Z,12.60
2023-04-12T08:04:29.939Z,12.53
2023-04-12T08:06:57.831Z,12.48
2023-04-12T08:09:25.953Z,12.55
2023-04-12T08:11:53.919Z,12.24
2023-04-12T08:14:21.723Z,12.90
2023-04-12T08:16:50.991Z,13.51
2023-04-12T08:19:19.592Z,13.33
2023-04-12T08:21:47.543Z,13.16
2023-04-12T08:24:15.441Z,13.03
2023-04-12T08:26:43.173Z,13.54
2023-04-12T08:29:10.962Z,13.84
2023-04-12T08:31:39.051Z,14.06
2023-04-12T08:34:08.327Z,14.01
2023-04-12T08:36:36.100Z,13.72
2023-04-12T08:39:04.242Z,13.81
2023-04-12T08:41:32.130Z,13.98
2023-04-12T08:44:00.836Z,14.08
2023-04-12T08:46:30.137Z,14.64
2023-04-12T08:48:58.467Z,14.85
2023-04-12T08:51:27.999Z,15.59
2023-04-12T08:53:56.569Z,15.38
2023-04-12T08:56:25.063Z,16.44
2023-04-12T08:58:53.988Z,16.89
2023-04-12T09:01:22.351Z,16.68
2023-04-12T09:03:50.375Z,17.03
2023-04-12T09:06:18.637Z,17.37
2023-04-12T09:08:56.059Z,18.09
2023-04-12T09:11:26.064Z,18.54
2023-04-12T09:13:55.444Z,18.34
2023-04-12T09:16:40.388Z,17.47
2023-04-12T09:19:08.869Z,18.26
2023-04-12T09:21:37.617Z,18.16
2023-04-12T09:24:14.030Z,18.94
2023-04-12T09:26:42.464Z,17.52
2023-04-12T09:29:24.234Z,19.97
2023-04-12T09:32:02.265Z,20.82
2023-04-12T09:34:30.572Z,21.27
2023-04-12T09:36:58.760Z,21.26
2023-04-12T09:39:43.540Z,20.19
2023-04-12T09:42:25.708Z,20.66
2023-04-12T09:45:01.752Z,19.41
2023-04-12T09:47:40.133Z,19.63
2023-04-12T09:50:09.992Z,21.05
2023-04-12T09:52:40.212Z,20.58
2023-04-12T09:55:11.625Z,20.75
2023-04-12T09:57:41.692Z,18.64
2023-04-12T10:00:14.385Z,18.95
2023-04-12T10:02:45.126Z,19.09
2023-04-12T10:05:17.056Z,17.84
2023-04-12T10:07:46.282Z,17.25
2023-04-12T10:10:17.770Z,17.78
2023-04-12T10:12:47.523Z,17.56
2023-04-12T10:15:17.813Z,16.67
2023-04-12T10:17:47.669Z,17.03
2023-04-12T10:20:17.722Z,17.17
2023-04-12T10:22:47.841Z,16.96
2023-04-12T10:25:18.613Z,16.72
2023-04-12T10:27:47.526Z,16.70
2023-04-12T10:30:26.182Z,16.60
2023-04-12T10:33:15.087Z,17.22
2023-04-12T10:35:57.564Z,17.51
2023-04-12T10:38:27.359Z,17.44
2023-04-12T10:41:18.625Z,18.39
2023-04-12T10:43:47.259Z,18.28
2023-04-12T10:46:52.577Z,17.45
2023-04-12T10:49:20.640Z,17.48
2023-04-12T10:52:17.108Z,16.69
2023-04-12T10:54:44.959Z,16.52
2023-04-12T10:57:49.509Z,16.55
2023-04-12T11:00:18.090Z,16.98
2023-04-12T11:03:11.929Z,17.68
2023-04-12T11:06:12.493Z,17.42
2023-04-12T11:08:48.599Z,17.16
2023-04-12T11:11:20.973Z,16.49
2023-04-12T11:13:55.476Z,16.53
2023-04-12T11:16:23.283Z,15.69
2023-04-12T11:18:51.731Z,15.87
2023-04-12T11:21:20.530Z,16.16
2023-04-12T11:23:50.213Z,16.47
2023-04-12T11:26:21.257Z,15.70
2023-04-12T11:28:53.132Z,16.08
2023-04-12T11:31:21.974Z,16.20
2023-04-12T11:33:49.762Z,16.64
2023-04-12T11:36:18.889Z,17.07
2023-04-12T11:38:50.241Z,17.73
2023-04-12T11:41:18.661Z,17.30
2023-04-12T11:43:47.607Z,17.68
2023-04-12T11:46:18.284Z,16.64
2023-04-12T11:48:46.900Z,16.56
2023-04-12T11:51:21.461Z,15.74
2023-04-12T11:53:54.105Z,16.00
2023-04-12T11:56:22.068Z,15.84
2023-04-12T11:58:50.045Z,15.56
2023-04-12T12:01:21.405Z,15.23
2023-04-12T12:03:50.447Z,14.66
2023-04-12T12:06:20.753Z,14.36
2023-04-12T12:08:50.788Z,14.28
2023-04-12T12:11:19.237Z,14.30
2023-04-12T12:13:48.679Z,14.28
2023-04-12T12:16:17.658Z,14.28
2023-04-12T12:18:52.370Z,14.61
2023-04-12T12:21:21.296Z,15.11
2023-04-12T12:23:50.235Z,15.45
2023-04-12T12:26:22.538Z,15.21
2023-04-12T12:28:52.039Z,15.55
2023-04-12T12:31:22.460Z,15.50
2023-04-12T12:33:56.839Z,15.43
2023-04-12T12:36:32.350Z,15.71
2023-04-12T12:39:06.946Z,15.46
2023-04-12T12:41:35.537Z,15.12
2023-04-12T12:44:04.240Z,15.16
2023-04-12T12:46:50.560Z,14.76
2023-04-12T12:49:20.531Z,14.77
2023-04-12T12:51:48.323Z,14.76
2023-04-12T12:54:31.665Z,14.78
2023-04-12T12:57:05.583Z,14.56
2023-04-12T12:59:33.454Z,14.49
2023-04-12T13:02:01.322Z,14.24
2023-04-12T13:04:30.615Z,13.97
2023-04-12T13:06:58.526Z,14.15
2023-04-12T13:09:26.356Z,13.94
2023-04-12T13:11:54.490Z,13.84
2023-04-12T13:14:22.263Z,13.88
2023-04-12T13:16:50.083Z,13.62
2023-04-12T13:19:17.837Z,13.17
2023-04-12T13:21:47.427Z,13.14
2023-04-12T13:24:15.491Z,13.21
2023-04-12T13:26:43.286Z,12.98
2023-04-12T13:29:11.466Z,13.02
2023-04-12T13:31:39.232Z,13.04
2023-04-12T13:34:07.006Z,13.04
2023-04-12T13:36:34.885Z,13.17
2023-04-12T13:39:04.110Z,13.33
2023-04-12T13:41:32.973Z,13.48
2023-04-12T13:44:00.925Z,13.55
2023-04-12T13:46:28.879Z,13.52
2023-04-12T13:48:57.122Z,13.79
2023-04-12T13:51:26.545Z,13.76
2023-04-12T13:53:54.848Z,13.91
2023-04-12T13:56:30.145Z,13.92
2023-04-12T13:58:59.231Z,14.24
2023-04-12T14:01:27.503Z,14.19
2023-04-12T14:03:55.841Z,14.12
2023-04-12T14:06:23.835Z,14.22
2023-04-12T14:08:52.190Z,14.35
2023-04-12T14:11:20.075Z,14.43
2023-04-12T14:13:49.375Z,14.51
2023-04-12T14:16:17.278Z,14.26
2023-04-12T14:18:45.640Z,14.40
2023-04-12T14:21:13.482Z,14.35
2023-04-12T14:23:41.580Z,14.31
2023-04-12T14:26:09.630Z,14.39
2023-04-12T14:28:37.466Z,14.36
2023-04-12T14:31:07.211Z,14.51
2023-04-12T14:33:34.957Z,14.54
2023-04-12T14:36:05.084Z,14.59
2023-04-12T14:38:33.358Z,14.39
2023-04-12T14:41:01.272Z,14.28
2023-04-12T14:43:29.276Z,14.39
2023-04-12T14:45:57.078Z,14.58
2023-04-12T14:48:26.452Z,14.53
2023-04-12T14:50:55.605Z,14.30
2023-04-12T14:53:23.589Z,14.07
2023-04-12T14:55:51.837Z,13.77
2023-04-12T14:58:19.569Z,13.52
2023-04-12T15:00:49.043Z,13.48
2023-04-12T15:03:17.751Z,13.38
2023-04-12T15:05:47.103Z,13.25
2023-04-12T15:08:14.925Z,13.02
2023-04-12T15:10:42.786Z,13.06
2023-04-12T15:13:11.194Z,12.85
2023-04-12T15:15:38.941Z,12.87
2023-04-12T15:18:06.983Z,12.70
2023-04-12T15:20:35.980Z,12.60
2023-04-12T15:23:06.635Z,12.61
2023-04-12T15:25:34.470Z,12.58
2023-04-12T15:28:03.011Z,12.37
2023-04-12T15:30:31.850Z,12.25
2023-04-12T15:32:59.728Z,12.15
2023-04-12T15:35:27.757Z,12.16
2023-04-12T15:37:56.226Z,12.06
2023-04-12T15:40:25.900Z,12.07
2023-04-12T15:42:53.949Z,12.05
2023-04-12T15:45:22.100Z,12.00
2023-04-12T15:47:49.908Z,12.07
2023-04-12T15:50:19.365Z,12.05
2023-04-12T15:52:47.478Z,12.12
2023-04-12T15:55:17.094Z,12.04
2023-04-12T15:57:47.029Z,12.19
2023-04-12T16:00:23.801Z,12.03
2023-04-12T16:02:56.154Z,12.25
2023-04-12T16:05:26.537Z,12.03
2023-04-12T16:07:54.898Z,12.06
2023-04-12T16:10:23.878Z,11.99
2023-04-12T16:12:54.582Z,11.75
2023-04-12T16:15:22.618Z,12.03
2023-04-12T16:17:53.271Z,11.92
2023-04-12T16:20:22.028Z,11.86
2023-04-12T16:22:54.221Z,11.86
2023-04-12T16:25:23.339Z,11.71
2023-04-12T16:27:51.245Z,11.66
2023-04-12T16:30:20.723Z,11.59
2023-04-12T16:32:48.843Z,11.65
2023-04-12T16:35:17.326Z,11.65
2023-04-12T16:37:46.030Z,11.58
2023-04-12T16:40:14.326Z,11.47
2023-04-12T16:42:42.601Z,11.36
2023-04-12T16:45:14.594Z,11.39
2023-04-12T16:47:43.955Z,11.35
2023-04-12T16:50:13.168Z,11.35
2023-04-12T16:52:41.715Z,11.30
2023-04-12T16:55:12.332Z,11.37
2023-04-12T16:57:41.124Z,11.26
2023-04-12T17:00:21.105Z,11.49
2023-04-12T17:02:53.125Z,11.41
2023-04-12T17:05:21.167Z,11.37
2023-04-12T17:07:52.208Z,11.47
2023-04-12T17:10:22.454Z,11.48
2023-04-12T17:12:52.131Z,11.48
2023-04-12T17:15:22.012Z,11.45
2023-04-12T17:17:53.182Z,11.56
2023-04-12T17:20:23.188Z,11.52
2023-04-12T17:22:52.133Z,11.49
2023-04-12T17:25:21.342Z,11.54
2023-04-12T17:27:50.809Z,11.47
2023-04-12T17:30:18.717Z,11.49
2023-04-12T17:32:48.323Z,11.41
2023-04-12T17:35:18.759Z,11.40
2023-04-12T17:37:47.395Z,11.21
2023-04-12T17:40:15.877Z,11.34
2023-04-12T17:42:44.555Z,11.31
2023-04-12T17:45:14.513Z,11.24
2023-04-12T17:47:42.904Z,11.15
2023-04-12T17:50:12.349Z,11.10
2023-04-12T17:52:42.446Z,11.00
2023-04-12T17:55:12.610Z,10.94
2023-04-12T17:57:40.514Z,10.94
2023-04-12T18:00:11.750Z,10.83
2023-04-12T18:02:39.969Z,10.56
2023-04-12T18:05:08.732Z,10.61
2023-04-12T18:07:37.032Z,10.52
2023-04-12T18:10:07.872Z,10.47
2023-04-12T18:12:35.774Z,10.22
2023-04-12T18:15:03.716Z,9.65
2023-04-12T18:17:31.558Z,9.03
2023-04-12T18:20:01.292Z,8.99
2023-04-12T18:22:30.662Z,8.74
2023-04-12T18:24:58.549Z,8.60
2023-04-12T18:27:27.769Z,8.76
2023-04-12T18:29:56.531Z,8.69
2023-04-12T18:32:24.376Z,8.64
2023-04-12T18:34:52.692Z,8.60
2023-04-12T18:37:20.822Z,8.63
2023-04-12T18:39:50.080Z,8.54
2023-04-12T18:42:18.986Z,8.53
2023-04-12T18:44:48.112Z,8.47
2023-04-12T18:47:15.930Z,8.55
2023-04-12T18:49:43.706Z,8.60
2023-04-12T18:52:11.482Z,8.48
2023-04-12T18:54:39.206Z,8.47
2023-04-12T18:57:07.024Z,8.35
2023-04-12T18:59:34.842Z,8.20
2023-04-12T19:02:04.014Z,8.12
2023-04-12T19:04:31.937Z,8.20
2023-04-12T19:07:02.480Z,8.18
2023-04-12T19:09:33.510Z,8.36
2023-04-12T19:12:03.558Z,8.24
2023-04-12T19:14:34.984Z,8.23
2023-04-12T19:17:05.125Z,8.20
2023-04-12T19:19:33.697Z,8.10
2023-04-12T19:22:04.126Z,8.01
2023-04-12T19:24:33.247Z,8.28
2023-04-12T19:27:02.019Z,8.18
2023-04-12T19:29:31.631Z,8.20
2023-04-12T19:32:03.044Z,8.05
2023-04-12T19:34:34.933Z,8.05
2023-04-12T19:37:04.415Z,8.11
2023-04-12T19:39:33.248Z,8.07
2023-04-12T19:42:05.771Z,8.15
2023-04-12T19:44:37.784Z,8.13
2023-04-12T19:47:08.933Z,8.26
2023-04-12T19:49:40.419Z,8.47
2023-04-12T19:52:10.388Z,7.97
2023-04-12T19:54:40.229Z,8.24
2023-04-12T19:57:09.498Z,8.13
2023-04-12T19:59:38.753Z,8.37
2023-04-12T20:02:08.725Z,8.41
2023-04-12T20:04:40.816Z,8.55
2023-04-12T20:07:09.889Z,8.65
2023-04-12T20:09:41.725Z,8.26
2023-04-12T20:12:12.631Z,8.39
2023-04-12T20:14:42.844Z,8.26
2023-04-12T20:17:12.151Z,8.12
2023-04-12T20:19:43.239Z,8.16
2023-04-12T20:22:13.184Z,8.15
2023-04-12T20:24:41.712Z,8.28
2023-04-12T20:27:11.432Z,8.09
2023-04-12T20:29:40.913Z,8.13
2023-04-12T20:32:09.892Z,8.28
2023-04-12T20:34:38.477Z,8.14
2023-04-12T20:37:10.257Z,8.20
2023-04-12T20:39:41.165Z,8.09
2023-04-12T20:42:13.084Z,8.34
2023-04-12T20:44:42.421Z,8.37
2023-04-12T20:47:11.783Z,8.35
2023-04-12T20:49:39.806Z,8.14
2023-04-12T20:52:11.020Z,7.91
2023-04-12T20:54:42.343Z,8.20
2023-04-12T20:57:11.926Z,8.20
2023-04-12T20:59:40.139Z,8.37
2023-04-12T21:02:09.267Z,8.38
2023-04-12T21:04:39.638Z,8.41
2023-04-12T21:07:09.173Z,8.24
2023-04-12T21:09:37.477Z,8.09
2023-04-12T21:12:07.252Z,8.10
2023-04-12T21:14:35.582Z,7.64
2023-04-12T21:17:04.979Z,7.55
2023-04-12T21:19:33.095Z,7.33
2023-04-12T21:22:01.130Z,6.97
2023-04-12T21:24:31.175Z,7.06
2023-04-12T21:26:59.896Z,7.23
2023-04-12T21:31:58.204Z,7.20
2023-04-12T21:34:26.052Z,7.13
2023-04-12T21:36:55.261Z,6.81
2023-04-12T21:39:23.143Z,6.83
2023-04-12T21:41:52.460Z,6.76
2023-04-12T21:44:20.550Z,6.83
2023-04-12T21:46:48.616Z,6.71
2023-04-12T21:49:16.509Z,6.76
2023-04-12T21:51:45.991Z,6.88
2023-04-12T21:54:14.047Z,6.80
2023-04-12T21:56:41.900Z,6.72
2023-04-12T21:59:11.358Z,6.55
2023-04-12T22:01:39.356Z,6.45
2023-04-12T22:04:07.835Z,6.13
2023-04-12T22:06:35.826Z,6.41
2023-04-12T22:09:04.775Z,6.25
2023-04-12T22:11:32.954Z,6.03
2023-04-12T22:14:01.534Z,6.12
2023-04-12T22:16:31.200Z,6.53
2023-04-12T22:18:59.487Z,6.34
2023-04-12T22:21:28.424Z,6.41
2023-04-12T22:23:56.374Z,6.42
2023-04-12T22:26:24.314Z,6.45
2023-04-12T22:28:52.387Z,6.56
2023-04-12T22:31:22.970Z,6.52
2023-04-12T22:33:54.884Z,6.37
2023-04-12T22:36:28.509Z,6.50
2023-04-12T22:38:57.831Z,6.62
2023-04-12T22:41:28.674Z,6.50
2023-04-12T22:44:01.291Z,6.51
2023-04-12T22:46:32.234Z,6.41
2023-04-12T22:49:02.114Z,6.19
2023-04-12T22:51:31.676Z,6.37
2023-04-12T22:53:59.722Z,6.69
2023-04-12T22:56:29.278Z,6.50
2023-04-12T22:58:57.325Z,6.64
2023-04-12T23:01:25.328Z,6.63
2023-04-12T23:03:54.156Z,6.84
2023-04-12T23:06:23.261Z,6.79
2023-04-12T23:08:51.057Z,6.68
2023-04-12T23:11:19.155Z,6.52
2023-04-12T23:13:47.131Z,6.75
2023-04-12T23:16:16.232Z,6.68
2023-04-12T23:18:45.013Z,6.73
2023-04-12T23:21:12.991Z,6.78
2023-04-12T23:23:43.265Z,6.77
2023-04-12T23:26:11.989Z,6.74
2023-04-12T23:28:40.595Z,6.80
2023-04-12T23:31:09.115Z,6.89
2023-04-12T23:33:38.751Z,6.99
2023-04-12T23:36:07.319Z,6.61
2023-04-12T23:38:35.194Z,6.79
2023-04-12T23:41:06.662Z,6.78
2023-04-12T23:43:35.353Z,6.98
2023-04-12T23:46:04.393Z,6.91
2023-04-12T23:48:33.233Z,6.74
2023-04-12T23:51:01.060Z,6.78
2023-04-12T23:53:28.952Z,6.69
2023-04-12T23:55:56.787Z,6.83
2023-04-12T23:58:26.514Z,6.87
